Urb La Guadalupe, Puerto Rico
Current Conditions -  °F | °C
As of 3:50 PM on Monday 22 Dec 2014 (Local Time) from TJPS Reporting Station
Few Clouds Few Clouds  
Wind Chill: 88°   Ceiling: Unl
Heat Index: 94°   Visibility: 10mi
Dew Point: 72°   Wind: 12mph
Humidity: 58%   Direction: 120°ESE
Pressure: 29.93"   Gusts: NA
Location:  18.0152°N, 66.6246°W
Report Text: TJPS 221950Z 12010KT 10SM FEW030 31/22 A2993
Loading
Personal Weather Stations






























Interactive Weather Map New forecast layout! Learn more

10-Day Weather Forecast

Advertisements
Track Severe Weather on mobile